createdAt,value
2018-07-27T00:00:12.655Z,940.11
2018-07-27T00:01:12.668Z,940.16
2018-07-27T00:02:12.687Z,940.12
2018-07-27T00:03:12.688Z,940.11
2018-07-27T00:04:12.940Z,940.15
2018-07-27T00:05:12.732Z,940.08
2018-07-27T00:06:12.718Z,940.07
2018-07-27T00:07:12.750Z,940.08
2018-07-27T00:08:12.756Z,940.03
2018-07-27T00:09:12.908Z,940.02
2018-07-27T00:10:12.795Z,940.02
2018-07-27T00:11:12.807Z,940.00
2018-07-27T00:12:12.819Z,939.99
2018-07-27T00:13:12.839Z,940.03
2018-07-27T00:14:13.008Z,940.05
2018-07-27T00:15:12.849Z,940.05
2018-07-27T00:16:12.877Z,940.04
2018-07-27T00:17:12.889Z,940.06
2018-07-27T00:18:12.905Z,940.09
2018-07-27T00:19:12.917Z,940.10
2018-07-27T00:20:13.084Z,940.10
2018-07-27T00:21:12.948Z,940.10
2018-07-27T00:22:12.947Z,940.14
2018-07-27T00:23:12.970Z,940.16
2018-07-27T00:24:12.994Z,940.15
2018-07-27T00:25:13.006Z,940.17
2018-07-27T00:26:13.149Z,940.20
2018-07-27T00:27:13.042Z,940.22
2018-07-27T00:28:13.039Z,940.24
2018-07-27T00:29:13.040Z,940.24
2018-07-27T00:30:13.071Z,940.23
2018-07-27T00:31:13.233Z,940.29
2018-07-27T00:32:13.105Z,940.30
2018-07-27T00:33:13.113Z,940.30
2018-07-27T00:34:13.124Z,940.32
2018-07-27T00:35:13.146Z,940.33
2018-07-27T00:36:13.302Z,940.31
2018-07-27T00:37:13.178Z,940.29
2018-07-27T00:38:13.182Z,940.26
2018-07-27T00:39:13.201Z,940.27
2018-07-27T00:40:13.208Z,940.32
2018-07-27T00:41:13.372Z,940.30
2018-07-27T00:42:13.242Z,940.32
2018-07-27T00:43:13.238Z,940.29
2018-07-27T00:44:13.266Z,940.37
2018-07-27T00:45:13.280Z,940.33
2018-07-27T00:46:13.443Z,940.35
2018-07-27T00:47:13.288Z,940.40
2018-07-27T00:48:13.320Z,940.40
2018-07-27T00:49:13.334Z,940.40
2018-07-27T00:50:13.329Z,940.38
2018-07-27T00:51:13.509Z,940.40
2018-07-27T00:52:13.377Z,940.40
2018-07-27T00:53:13.387Z,940.38
2018-07-27T00:54:13.382Z,940.42
2018-07-27T00:55:13.417Z,940.43
2018-07-27T00:56:13.561Z,940.42
2018-07-27T00:57:13.442Z,940.40
2018-07-27T00:58:13.461Z,940.43
2018-07-27T00:59:13.450Z,940.44
2018-07-27T01:00:13.486Z,940.40
2018-07-27T01:01:13.648Z,940.48
2018-07-27T01:02:13.513Z,940.46
2018-07-27T01:03:13.520Z,940.44
2018-07-27T01:04:13.541Z,940.49
2018-07-27T01:05:13.552Z,940.49
2018-07-27T01:06:13.814Z,940.45
2018-07-27T01:07:13.573Z,940.46
2018-07-27T01:08:13.595Z,940.48
2018-07-27T01:09:13.605Z,940.41
2018-07-27T01:10:13.624Z,940.43
2018-07-27T01:11:13.885Z,940.45
2018-07-27T01:12:13.641Z,940.45
2018-07-27T01:13:13.657Z,940.46
2018-07-27T01:14:13.657Z,940.49
2018-07-27T01:15:13.682Z,940.50
2018-07-27T01:16:13.851Z,940.49
2018-07-27T01:17:13.709Z,940.52
2018-07-27T01:18:13.724Z,940.52
2018-07-27T01:19:13.729Z,940.48
2018-07-27T01:20:13.749Z,940.50
2018-07-27T01:21:13.920Z,940.49
2018-07-27T01:22:13.776Z,940.51
2018-07-27T01:23:13.801Z,940.49
2018-07-27T01:24:13.814Z,940.44
2018-07-27T01:25:13.822Z,940.40
2018-07-27T01:26:13.984Z,940.37
2018-07-27T01:27:13.845Z,940.34
2018-07-27T01:28:13.843Z,940.33
2018-07-27T01:29:13.877Z,940.35
2018-07-27T01:30:13.890Z,940.35
2018-07-27T01:31:13.902Z,940.33
2018-07-27T01:32:14.053Z,940.29
2018-07-27T01:33:13.909Z,940.25
2018-07-27T01:34:13.945Z,940.28
2018-07-27T01:35:13.955Z,940.22
2018-07-27T01:36:13.971Z,940.25
2018-07-27T01:37:13.977Z,940.25
2018-07-27T01:38:14.247Z,940.27
2018-07-27T01:39:13.992Z,940.23
2018-07-27T01:40:14.019Z,940.23
2018-07-27T01:41:14.041Z,940.26
2018-07-27T01:42:14.047Z,940.26
2018-07-27T01:43:14.187Z,940.31
2018-07-27T01:44:14.076Z,940.33
2018-07-27T01:45:14.066Z,940.32
2018-07-27T01:46:14.105Z,940.36
2018-07-27T01:47:14.114Z,940.35
2018-07-27T01:48:14.284Z,940.41
2018-07-27T01:49:14.135Z,940.40
2018-07-27T01:50:14.160Z,940.41
2018-07-27T01:51:14.170Z,940.40
2018-07-27T01:52:14.164Z,940.39
2018-07-27T01:53:14.343Z,940.37
2018-07-27T01:54:14.207Z,940.41
2018-07-27T01:55:14.220Z,940.38
2018-07-27T01:56:14.237Z,940.37
2018-07-27T01:57:14.248Z,940.40
2018-07-27T01:58:14.416Z,940.37
2018-07-27T01:59:14.270Z,940.35
2018-07-27T02:00:14.282Z,940.39
2018-07-27T02:01:14.302Z,940.40
2018-07-27T02:02:14.311Z,940.42
2018-07-27T02:03:14.458Z,940.44
2018-07-27T02:04:14.336Z,940.45
2018-07-27T02:05:14.345Z,940.41
2018-07-27T02:06:14.365Z,940.44
2018-07-27T02:07:14.381Z,940.42
2018-07-27T02:08:14.538Z,940.41
2018-07-27T02:09:14.397Z,940.41
2018-07-27T02:10:14.397Z,940.44
2018-07-27T02:11:14.429Z,940.37
2018-07-27T02:12:14.443Z,940.38
2018-07-27T02:13:14.585Z,940.40
2018-07-27T02:14:14.463Z,940.37
2018-07-27T02:15:14.462Z,940.39
2018-07-27T02:16:14.492Z,940.39
2018-07-27T02:17:14.513Z,940.41
2018-07-27T02:18:14.649Z,940.38
2018-07-27T02:19:14.512Z,940.41
2018-07-27T02:20:14.539Z,940.41
2018-07-27T02:21:14.560Z,940.42
2018-07-27T02:22:14.567Z,940.41
2018-07-27T02:23:14.740Z,940.43
2018-07-27T02:24:14.597Z,940.42
2018-07-27T02:25:14.618Z,940.41
2018-07-27T02:26:14.617Z,940.38
2018-07-27T02:27:14.637Z,940.39
2018-07-27T02:28:14.801Z,940.38
2018-07-27T02:29:14.665Z,940.36
2018-07-27T02:30:14.670Z,940.35
2018-07-27T02:31:14.685Z,940.33
2018-07-27T02:32:14.678Z,940.32
2018-07-27T02:33:14.862Z,940.35
2018-07-27T02:34:14.729Z,940.29
2018-07-27T02:35:14.740Z,940.30
2018-07-27T02:36:14.752Z,940.26
2018-07-27T02:37:14.773Z,940.25
2018-07-27T02:38:14.933Z,940.26
2018-07-27T02:39:14.798Z,940.25
2018-07-27T02:40:14.790Z,940.23
2018-07-27T02:41:14.816Z,940.24
2018-07-27T02:42:14.831Z,940.23
2018-07-27T02:43:14.998Z,940.23
2018-07-27T02:44:14.854Z,940.28
2018-07-27T02:45:14.871Z,940.26
2018-07-27T02:46:14.866Z,940.25
2018-07-27T02:47:14.892Z,940.24
2018-07-27T02:48:14.909Z,940.28
2018-07-27T02:49:15.170Z,940.25
2018-07-27T02:50:14.932Z,940.25
2018-07-27T02:51:14.958Z,940.25
2018-07-27T02:52:14.958Z,940.28
2018-07-27T02:53:14.972Z,940.27
2018-07-27T02:54:15.219Z,940.28
2018-07-27T02:55:14.992Z,940.27
2018-07-27T02:56:15.007Z,940.27
2018-07-27T02:57:15.027Z,940.25
2018-07-27T02:58:15.045Z,940.27
2018-07-27T02:59:15.198Z,940.23
2018-07-27T03:00:15.048Z,940.25
2018-07-27T03:01:15.075Z,940.25
2018-07-27T03:02:15.068Z,940.24
2018-07-27T03:03:15.106Z,940.25
2018-07-27T03:04:15.247Z,940.26
2018-07-27T03:05:15.111Z,940.28
2018-07-27T03:06:15.141Z,940.24
2018-07-27T03:07:15.155Z,940.27
2018-07-27T03:08:15.139Z,940.29
2018-07-27T03:09:15.322Z,940.29
2018-07-27T03:10:15.193Z,940.34
2018-07-27T03:11:15.185Z,940.30
2018-07-27T03:12:15.192Z,940.26
2018-07-27T03:13:15.227Z,940.30
2018-07-27T03:14:15.394Z,940.33
2018-07-27T03:15:15.253Z,940.35
2018-07-27T03:16:15.274Z,940.34
2018-07-27T03:17:15.279Z,940.35
2018-07-27T03:18:15.292Z,940.34
2018-07-27T03:19:15.552Z,940.34
2018-07-27T03:20:15.316Z,940.34
2018-07-27T03:21:15.329Z,940.34
2018-07-27T03:22:15.380Z,940.35
2018-07-27T03:23:15.354Z,940.35
2018-07-27T03:24:15.524Z,940.33
2018-07-27T03:25:15.381Z,940.33
2018-07-27T03:26:15.393Z,940.34
2018-07-27T03:27:15.384Z,940.36
2018-07-27T03:28:15.420Z,940.36
2018-07-27T03:29:15.592Z,940.33
2018-07-27T03:30:15.458Z,940.32
2018-07-27T03:31:15.436Z,940.34
2018-07-27T03:32:15.466Z,940.32
2018-07-27T03:33:15.482Z,940.35
2018-07-27T03:34:15.644Z,940.34
2018-07-27T03:35:15.511Z,940.31
2018-07-27T03:36:15.528Z,940.30
2018-07-27T03:37:15.531Z,940.30
2018-07-27T03:38:15.557Z,940.30
2018-07-27T03:39:15.709Z,940.30
2018-07-27T03:40:15.551Z,940.33
2018-07-27T03:41:15.568Z,940.36
2018-07-27T03:42:15.618Z,940.35
2018-07-27T03:43:15.591Z,940.33
2018-07-27T03:44:15.772Z,940.34
2018-07-27T03:45:15.635Z,940.35
2018-07-27T03:46:15.629Z,940.34
2018-07-27T03:47:15.659Z,940.33
2018-07-27T03:48:15.673Z,940.35
2018-07-27T03:49:15.822Z,940.35
2018-07-27T03:50:15.697Z,940.38
2018-07-27T03:51:15.692Z,940.33
2018-07-27T03:52:15.722Z,940.31
2018-07-27T03:53:15.737Z,940.32
2018-07-27T03:54:15.898Z,940.32
2018-07-27T03:55:15.743Z,940.29
2018-07-27T03:56:15.780Z,940.29
2018-07-27T03:57:15.786Z,940.28
2018-07-27T03:58:15.802Z,940.30
2018-07-27T03:59:15.959Z,940.25
2018-07-27T04:00:15.822Z,940.26
2018-07-27T04:01:15.834Z,940.28
2018-07-27T04:02:15.911Z,940.29
2018-07-27T04:03:15.863Z,940.28
2018-07-27T04:04:15.877Z,940.28
2018-07-27T04:05:16.036Z,940.24
2018-07-27T04:06:15.884Z,940.23
2018-07-27T04:07:15.916Z,940.24
2018-07-27T04:08:15.922Z,940.26
2018-07-27T04:09:15.936Z,940.22
2018-07-27T04:10:15.947Z,940.22
2018-07-27T04:11:16.109Z,940.26
2018-07-27T04:12:15.979Z,940.22
2018-07-27T04:13:15.986Z,940.23
2018-07-27T04:14:15.977Z,940.24
2018-07-27T04:15:16.012Z,940.23
2018-07-27T04:16:16.177Z,940.25
2018-07-27T04:17:16.040Z,940.28
2018-07-27T04:18:16.052Z,940.24
2018-07-27T04:19:16.058Z,940.27
2018-07-27T04:20:16.071Z,940.18
2018-07-27T04:21:16.238Z,940.23
2018-07-27T04:22:16.090Z,940.25
2018-07-27T04:23:16.109Z,940.22
2018-07-27T04:24:16.126Z,940.25
2018-07-27T04:25:16.116Z,940.30
2018-07-27T04:26:16.311Z,940.23
2018-07-27T04:27:16.167Z,940.28
2018-07-27T04:28:16.153Z,940.24
2018-07-27T04:29:16.189Z,940.25
2018-07-27T04:30:16.198Z,940.24
2018-07-27T04:31:16.419Z,940.26
2018-07-27T04:32:16.222Z,940.21
2018-07-27T04:33:16.234Z,940.23
2018-07-27T04:34:16.248Z,940.21
2018-07-27T04:35:16.265Z,940.21
2018-07-27T04:36:16.427Z,940.21
2018-07-27T04:37:16.289Z,940.18
2018-07-27T04:38:16.274Z,940.15
2018-07-27T04:39:16.309Z,940.16
2018-07-27T04:40:16.328Z,940.13
2018-07-27T04:41:16.490Z,940.15
2018-07-27T04:42:16.344Z,940.17
2018-07-27T04:43:16.363Z,940.14
2018-07-27T04:44:16.367Z,940.14
2018-07-27T04:45:16.383Z,940.11
2018-07-27T04:46:16.531Z,940.11
2018-07-27T04:47:16.411Z,940.05
2018-07-27T04:48:16.399Z,940.05
2018-07-27T04:49:16.446Z,940.06
2018-07-27T04:50:16.446Z,940.03
2018-07-27T04:51:16.687Z,939.98
2018-07-27T04:52:16.471Z,940.01
2018-07-27T04:53:16.466Z,939.97
2018-07-27T04:54:16.498Z,939.96
2018-07-27T04:55:16.507Z,939.96
2018-07-27T04:56:16.778Z,940.00
2018-07-27T04:57:16.516Z,939.94
2018-07-27T04:58:16.547Z,939.95
2018-07-27T04:59:16.573Z,939.95
2018-07-27T05:00:16.570Z,939.96
2018-07-27T05:01:16.727Z,939.91
2018-07-27T05:02:16.576Z,939.90
2018-07-27T05:03:16.609Z,939.88
2018-07-27T05:04:16.624Z,939.92
2018-07-27T05:05:16.613Z,939.87
2018-07-27T05:06:16.895Z,939.84
2018-07-27T05:07:16.664Z,939.83
2018-07-27T05:08:16.677Z,939.80
2018-07-27T05:09:16.679Z,939.81
2018-07-27T05:10:16.679Z,939.81
2018-07-27T05:11:16.858Z,939.81
2018-07-27T05:12:16.726Z,939.78
2018-07-27T05:13:16.731Z,939.75
2018-07-27T05:14:16.739Z,939.71
2018-07-27T05:15:16.750Z,939.70
2018-07-27T05:16:16.924Z,939.69
2018-07-27T05:17:16.779Z,939.67
2018-07-27T05:18:16.791Z,939.64
2018-07-27T05:19:16.808Z,939.64
2018-07-27T05:20:16.803Z,939.60
2018-07-27T05:21:16.827Z,939.66
2018-07-27T05:22:16.998Z,939.63
2018-07-27T05:23:16.848Z,939.66
2018-07-27T05:24:16.866Z,939.66
2018-07-27T05:25:16.877Z,939.65
2018-07-27T05:26:16.895Z,939.66
2018-07-27T05:27:16.904Z,939.67
2018-07-27T05:28:17.064Z,939.61
2018-07-27T05:29:16.925Z,939.62
2018-07-27T05:30:16.943Z,939.62
2018-07-27T05:31:16.951Z,939.60
2018-07-27T05:32:16.967Z,939.60
2018-07-27T05:33:17.240Z,939.58
2018-07-27T05:34:16.983Z,939.60
2018-07-27T05:35:16.997Z,939.60
2018-07-27T05:36:17.016Z,939.59
2018-07-27T05:37:17.024Z,939.59
2018-07-27T05:38:17.192Z,939.59
2018-07-27T05:39:17.058Z,939.61
2018-07-27T05:40:17.040Z,939.56
2018-07-27T05:41:17.071Z,939.60
2018-07-27T05:42:17.084Z,939.56
2018-07-27T05:43:17.251Z,939.55
2018-07-27T05:44:17.116Z,939.54
2018-07-27T05:45:17.121Z,939.57
2018-07-27T05:46:17.135Z,939.55
2018-07-27T05:47:17.151Z,939.57
2018-07-27T05:48:17.291Z,939.59
2018-07-27T05:49:17.158Z,939.60
2018-07-27T05:50:17.185Z,939.57
2018-07-27T05:51:17.196Z,939.59
2018-07-27T05:52:17.210Z,939.59
2018-07-27T05:53:17.367Z,939.57
2018-07-27T05:54:17.236Z,939.56
2018-07-27T05:55:17.246Z,939.55
2018-07-27T05:56:17.239Z,939.55
2018-07-27T05:57:17.263Z,939.52
2018-07-27T05:58:17.433Z,939.53
2018-07-27T05:59:17.307Z,939.50
2018-07-27T06:00:17.304Z,939.48
2018-07-27T06:01:17.430Z,939.44
2018-07-27T06:02:17.333Z,939.46
2018-07-27T06:03:17.500Z,939.49
2018-07-27T06:04:17.353Z,939.44
2018-07-27T06:05:17.361Z,939.46
2018-07-27T06:06:17.367Z,939.42
2018-07-27T06:07:17.389Z,939.47
2018-07-27T06:08:17.556Z,939.46
2018-07-27T06:09:17.414Z,939.50
2018-07-27T06:10:17.431Z,939.47
2018-07-27T06:11:17.443Z,939.46
2018-07-27T06:12:17.458Z,939.46
2018-07-27T06:13:17.616Z,939.46
2018-07-27T06:14:17.474Z,939.44
2018-07-27T06:15:17.467Z,939.41
2018-07-27T06:16:17.497Z,939.44
2018-07-27T06:17:17.513Z,939.44
2018-07-27T06:18:17.672Z,939.43
2018-07-27T06:19:17.538Z,939.41
2018-07-27T06:20:17.544Z,939.40
2018-07-27T06:21:17.547Z,939.41
2018-07-27T06:22:17.576Z,939.37
2018-07-27T06:23:17.735Z,939.38
2018-07-27T06:24:17.755Z,939.33
2018-07-27T06:25:17.603Z,939.30
2018-07-27T06:26:17.621Z,939.29
2018-07-27T06:27:17.633Z,939.24
2018-07-27T06:28:17.813Z,939.23
2018-07-27T06:29:17.715Z,939.21
2018-07-27T06:30:17.669Z,939.19
2018-07-27T06:31:17.684Z,939.18
2018-07-27T06:32:17.698Z,939.14
2018-07-27T06:33:17.858Z,939.16
2018-07-27T06:34:17.720Z,939.17
2018-07-27T06:35:17.732Z,939.13
2018-07-27T06:36:17.737Z,939.15
2018-07-27T06:37:17.758Z,939.15
2018-07-27T06:38:17.912Z,939.11
2018-07-27T06:39:17.773Z,939.14
2018-07-27T06:40:17.784Z,939.15
2018-07-27T06:41:17.801Z,939.18
2018-07-27T06:42:17.811Z,939.18
2018-07-27T06:43:17.822Z,939.19
2018-07-27T06:44:17.988Z,939.16
2018-07-27T06:45:17.928Z,939.17
2018-07-27T06:46:17.857Z,939.15
2018-07-27T06:47:17.873Z,939.15
2018-07-27T06:48:17.885Z,939.16
2018-07-27T06:49:17.891Z,939.17
2018-07-27T06:50:18.056Z,939.22
2018-07-27T06:51:17.914Z,939.23
2018-07-27T06:52:17.948Z,939.20
2018-07-27T06:53:17.939Z,939.23
2018-07-27T06:54:17.959Z,939.18
2018-07-27T06:55:18.117Z,939.22
2018-07-27T06:56:17.980Z,939.21
2018-07-27T06:57:17.970Z,939.20
2018-07-27T06:58:18.000Z,939.18
2018-07-27T06:59:18.024Z,939.15
2018-07-27T07:00:18.275Z,939.15
2018-07-27T07:01:18.038Z,939.13
2018-07-27T07:02:18.029Z,939.13
2018-07-27T07:03:18.041Z,939.13
2018-07-27T07:04:18.071Z,939.16
2018-07-27T07:05:18.215Z,939.18
2018-07-27T07:06:18.096Z,939.15
2018-07-27T07:07:18.107Z,939.20
2018-07-27T07:08:18.117Z,939.20
2018-07-27T07:09:18.133Z,939.20
2018-07-27T07:10:18.296Z,939.19
2018-07-27T07:11:18.152Z,939.21
2018-07-27T07:12:18.168Z,939.20
2018-07-27T07:13:18.176Z,939.21
2018-07-27T07:14:18.196Z,939.17
2018-07-27T07:15:18.353Z,939.15
2018-07-27T07:16:18.209Z,939.15
2018-07-27T07:17:18.230Z,939.14
2018-07-27T07:18:18.239Z,939.09
2018-07-27T07:19:18.250Z,939.09
2018-07-27T07:20:18.522Z,939.12
2018-07-27T07:21:18.267Z,939.08
2018-07-27T07:22:18.268Z,939.09
2018-07-27T07:23:18.295Z,939.09
2018-07-27T07:24:18.287Z,939.07
2018-07-27T07:25:18.595Z,939.07
2018-07-27T07:26:18.326Z,939.06
2018-07-27T07:27:18.338Z,939.01
2018-07-27T07:28:18.353Z,939.00
2018-07-27T07:29:18.363Z,939.00
2018-07-27T07:30:18.527Z,938.98
2018-07-27T07:31:18.373Z,939.00
2018-07-27T07:32:18.384Z,939.01
2018-07-27T07:33:18.410Z,939.00
2018-07-27T07:34:18.400Z,939.02
2018-07-27T07:35:18.583Z,939.01
2018-07-27T07:36:18.447Z,939.00
2018-07-27T07:37:18.458Z,939.06
2018-07-27T07:38:18.468Z,939.07
2018-07-27T07:39:18.462Z,939.12
2018-07-27T07:40:18.620Z,939.07
2018-07-27T07:41:18.480Z,939.11
2018-07-27T07:42:18.513Z,939.07
2018-07-27T07:43:18.523Z,939.04
2018-07-27T07:44:18.532Z,939.06
2018-07-27T07:45:18.677Z,939.04
2018-07-27T07:46:18.568Z,939.04
2018-07-27T07:47:18.613Z,939.05
2018-07-27T07:48:18.585Z,939.03
2018-07-27T07:49:18.636Z,939.04
2018-07-27T07:50:18.760Z,939.04
2018-07-27T07:51:18.622Z,939.01
2018-07-27T07:52:18.628Z,939.04
2018-07-27T07:53:18.642Z,939.06
2018-07-27T07:54:18.726Z,939.05
2018-07-27T07:55:18.919Z,939.05
2018-07-27T07:56:18.661Z,939.07
2018-07-27T07:57:18.684Z,939.05
2018-07-27T07:58:18.696Z,939.09
2018-07-27T07:59:18.711Z,939.10
2018-07-27T08:00:18.702Z,939.07
2018-07-27T08:01:18.867Z,939.10
2018-07-27T08:02:18.728Z,939.10
2018-07-27T08:03:18.762Z,939.10
2018-07-27T08:04:18.819Z,939.10
2018-07-27T08:05:18.792Z,939.15
2018-07-27T08:06:18.794Z,939.15
2018-07-27T08:07:18.955Z,939.16
2018-07-27T08:08:18.818Z,939.18
2018-07-27T08:09:18.826Z,939.22
2018-07-27T08:10:18.835Z,939.21
2018-07-27T08:11:18.851Z,939.18
2018-07-27T08:12:18.859Z,939.23
2018-07-27T08:13:19.018Z,939.20
2018-07-27T08:14:18.885Z,939.16
2018-07-27T08:15:18.876Z,939.20
2018-07-27T08:16:18.902Z,939.20
2018-07-27T08:17:19.021Z,939.22
2018-07-27T08:18:19.062Z,939.24
2018-07-27T08:19:18.921Z,939.24
2018-07-27T08:20:18.952Z,939.27
2018-07-27T08:21:18.962Z,939.31
2018-07-27T08:22:18.971Z,939.27
2018-07-27T08:23:19.142Z,939.27
2018-07-27T08:24:18.980Z,939.27
2018-07-27T08:25:18.995Z,939.26
2018-07-27T08:26:19.022Z,939.26
2018-07-27T08:27:19.034Z,939.24
2018-07-27T08:28:19.195Z,939.28
2018-07-27T08:29:19.056Z,939.25
2018-07-27T08:30:19.068Z,939.26
2018-07-27T08:31:19.074Z,939.28
2018-07-27T08:32:19.092Z,939.30
2018-07-27T08:33:19.255Z,939.33
2018-07-27T08:34:19.112Z,939.28
2018-07-27T08:35:19.128Z,939.31
2018-07-27T08:36:19.138Z,939.29
2018-07-27T08:37:19.186Z,939.32
2018-07-27T08:38:19.310Z,939.31
2018-07-27T08:39:19.173Z,939.32
2018-07-27T08:40:19.185Z,939.32
2018-07-27T08:41:19.173Z,939.35
2018-07-27T08:42:19.206Z,939.32
2018-07-27T08:43:19.449Z,939.34
2018-07-27T08:44:19.223Z,939.33
2018-07-27T08:45:19.247Z,939.33
2018-07-27T08:46:19.253Z,939.34
2018-07-27T08:47:19.310Z,939.38
2018-07-27T08:48:19.427Z,939.35
2018-07-27T08:49:19.267Z,939.37
2018-07-27T08:50:19.299Z,939.39
2018-07-27T08:51:19.307Z,939.38
2018-07-27T08:52:19.321Z,939.42
2018-07-27T08:53:19.474Z,939.38
2018-07-27T08:54:19.338Z,939.38
2018-07-27T08:55:19.352Z,939.41
2018-07-27T08:56:19.368Z,939.41
2018-07-27T08:57:19.362Z,939.43
2018-07-27T08:58:19.547Z,939.43
2018-07-27T08:59:19.434Z,939.47
2018-07-27T09:00:19.412Z,939.50
2018-07-27T09:01:19.401Z,939.53
2018-07-27T09:02:19.433Z,939.54
2018-07-27T09:03:19.593Z,939.57
2018-07-27T09:04:19.527Z,939.55
2018-07-27T09:05:19.470Z,939.53
2018-07-27T09:06:19.478Z,939.57
2018-07-27T09:07:19.491Z,939.55
2018-07-27T09:08:19.751Z,939.56
2018-07-27T09:09:19.546Z,939.55
2018-07-27T09:10:19.587Z,939.58
2018-07-27T09:11:19.532Z,939.60
2018-07-27T09:12:19.544Z,939.62
2018-07-27T09:13:19.712Z,939.62
2018-07-27T09:14:19.572Z,939.61
2018-07-27T09:15:19.576Z,939.67
2018-07-27T09:16:19.592Z,939.66
2018-07-27T09:17:19.655Z,939.67
2018-07-27T09:18:19.815Z,939.67
2018-07-27T09:19:19.642Z,939.65
2018-07-27T09:20:19.631Z,939.69
2018-07-27T09:21:19.650Z,939.69
2018-07-27T09:22:19.657Z,939.70
2018-07-27T09:23:19.803Z,939.76
2018-07-27T09:24:19.811Z,939.74
2018-07-27T09:25:19.868Z,939.74
2018-07-27T09:26:19.704Z,939.79
2018-07-27T09:27:19.694Z,939.84
2018-07-27T09:28:19.973Z,939.81
2018-07-27T09:29:19.737Z,939.82
2018-07-27T09:30:19.739Z,939.80
2018-07-27T09:31:19.764Z,939.83
2018-07-27T09:32:19.772Z,939.85
2018-07-27T09:33:19.785Z,939.82
2018-07-27T09:34:19.960Z,939.82
2018-07-27T09:35:19.816Z,939.80
2018-07-27T09:36:19.820Z,939.86
2018-07-27T09:37:19.836Z,939.83
2018-07-27T09:38:19.817Z,939.88
2018-07-27T09:39:19.875Z,939.87
2018-07-27T09:40:20.013Z,939.87
2018-07-27T09:41:19.876Z,939.87
2018-07-27T09:42:19.887Z,939.87
2018-07-27T09:43:19.875Z,939.90
2018-07-27T09:44:19.991Z,939.90
2018-07-27T09:45:20.072Z,939.91
2018-07-27T09:46:19.933Z,939.95
2018-07-27T09:47:19.937Z,939.91
2018-07-27T09:48:19.953Z,939.94
2018-07-27T09:49:19.989Z,939.91
2018-07-27T09:50:20.122Z,939.90
2018-07-27T09:51:19.986Z,939.92
2018-07-27T09:52:19.978Z,939.90
2018-07-27T09:53:20.010Z,939.93
2018-07-27T09:54:20.050Z,939.92
2018-07-27T09:55:20.186Z,939.92
2018-07-27T09:56:20.042Z,939.95
2018-07-27T09:57:20.096Z,939.94
2018-07-27T09:58:20.072Z,939.93
2018-07-27T09:59:20.149Z,939.96
2018-07-27T10:00:20.236Z,939.90
2018-07-27T10:01:20.102Z,939.95
2018-07-27T10:02:20.110Z,939.96
2018-07-27T10:03:20.119Z,940.01
2018-07-27T10:04:20.167Z,939.99
2018-07-27T10:05:20.311Z,940.01
2018-07-27T10:06:20.142Z,940.03
2018-07-27T10:07:20.171Z,940.05
2018-07-27T10:08:20.178Z,940.01
2018-07-27T10:09:20.256Z,940.03
2018-07-27T10:10:20.355Z,940.05
2018-07-27T10:11:20.214Z,940.07
2018-07-27T10:12:20.276Z,940.10
2018-07-27T10:13:20.248Z,940.11
2018-07-27T10:14:20.251Z,940.10
2018-07-27T10:15:20.434Z,940.07
2018-07-27T10:16:20.273Z,940.08
2018-07-27T10:17:20.261Z,940.09
2018-07-27T10:18:20.297Z,940.10
2018-07-27T10:19:20.342Z,940.12
2018-07-27T10:20:20.451Z,940.11
2018-07-27T10:21:20.338Z,940.11
2018-07-27T10:22:20.340Z,940.08
2018-07-27T10:23:20.349Z,940.12
2018-07-27T10:24:20.362Z,940.12
2018-07-27T10:25:20.606Z,940.13
2018-07-27T10:26:20.385Z,940.10
2018-07-27T10:27:20.399Z,940.11
2018-07-27T10:28:20.418Z,940.14
2018-07-27T10:29:20.426Z,940.14
2018-07-27T10:30:20.560Z,940.14
2018-07-27T10:31:20.513Z,940.14
2018-07-27T10:32:20.452Z,940.14
2018-07-27T10:33:20.468Z,940.10
2018-07-27T10:34:20.488Z,940.11
2018-07-27T10:35:20.645Z,940.12
2018-07-27T10:36:20.507Z,940.11
2018-07-27T10:37:20.490Z,940.09
2018-07-27T10:38:20.512Z,940.04
2018-07-27T10:39:20.560Z,940.06
2018-07-27T10:40:20.704Z,940.08
2018-07-27T10:41:20.583Z,940.10
2018-07-27T10:42:20.629Z,940.07
2018-07-27T10:43:20.584Z,940.07
2018-07-27T10:44:20.631Z,940.12
2018-07-27T10:45:20.759Z,940.15
2018-07-27T10:46:20.640Z,940.16
2018-07-27T10:47:20.634Z,940.15
2018-07-27T10:48:20.645Z,940.17
2018-07-27T10:49:20.689Z,940.21
2018-07-27T10:50:20.923Z,940.20
2018-07-27T10:51:20.662Z,940.23
2018-07-27T10:52:20.736Z,940.18
2018-07-27T10:53:20.744Z,940.16
2018-07-27T10:54:20.731Z,940.15
2018-07-27T10:55:20.951Z,940.16
2018-07-27T10:56:20.825Z,940.15
2018-07-27T10:57:20.783Z,940.11
2018-07-27T10:58:20.769Z,940.13
2018-07-27T10:59:20.814Z,940.13
2018-07-27T11:00:20.783Z,940.16
2018-07-27T11:01:20.959Z,940.13
2018-07-27T11:02:20.853Z,940.10
2018-07-27T11:03:20.837Z,940.10
2018-07-27T11:04:20.873Z,940.09
2018-07-27T11:05:20.885Z,940.07
2018-07-27T11:06:21.127Z,940.08
2018-07-27T11:07:20.892Z,940.09
2018-07-27T11:08:20.905Z,940.13
2018-07-27T11:09:20.925Z,940.13
2018-07-27T11:10:20.933Z,940.11
2018-07-27T11:11:21.179Z,940.12
2018-07-27T11:12:20.938Z,940.11
2018-07-27T11:13:20.972Z,940.13
2018-07-27T11:14:20.991Z,940.12
2018-07-27T11:15:21.026Z,940.14
2018-07-27T11:16:21.188Z,940.13
2018-07-27T11:17:21.129Z,940.10
2018-07-27T11:18:21.044Z,940.08
2018-07-27T11:19:21.122Z,940.12
2018-07-27T11:20:21.088Z,940.11
2018-07-27T11:21:21.272Z,940.12
2018-07-27T11:22:21.094Z,940.11
2018-07-27T11:23:21.099Z,940.08
2018-07-27T11:24:21.170Z,940.11
2018-07-27T11:25:21.138Z,940.12
2018-07-27T11:26:21.305Z,940.15
2018-07-27T11:27:21.163Z,940.23
2018-07-27T11:28:21.185Z,940.27
2018-07-27T11:29:21.249Z,940.28
2018-07-27T11:30:21.211Z,940.25
2018-07-27T11:31:21.370Z,940.26
2018-07-27T11:32:21.243Z,940.26
2018-07-27T11:33:21.259Z,940.31
2018-07-27T11:34:21.312Z,940.29
2018-07-27T11:35:21.302Z,940.32
2018-07-27T11:36:21.480Z,940.29
2018-07-27T11:37:21.339Z,940.29
2018-07-27T11:38:21.330Z,940.31
2018-07-27T11:39:21.356Z,940.36
2018-07-27T11:40:21.349Z,940.31
2018-07-27T11:41:21.523Z,940.29
2018-07-27T11:42:21.434Z,940.36
2018-07-27T11:43:21.412Z,940.35
2018-07-27T11:44:21.426Z,940.36
2018-07-27T11:45:21.434Z,940.34
2018-07-27T11:46:21.605Z,940.39
2018-07-27T11:47:21.471Z,940.33
2018-07-27T11:48:21.488Z,940.32
2018-07-27T11:49:21.620Z,940.37
2018-07-27T11:50:21.523Z,940.37
2018-07-27T11:51:21.694Z,940.32
2018-07-27T11:52:21.585Z,940.41
2018-07-27T11:53:21.566Z,940.42
2018-07-27T11:54:21.603Z,940.42
2018-07-27T11:55:21.591Z,940.43
2018-07-27T11:56:21.946Z,940.43
2018-07-27T11:57:21.658Z,940.46
2018-07-27T11:58:21.683Z,940.44
2018-07-27T11:59:21.772Z,940.47
2018-07-27T12:00:21.719Z,940.48
2018-07-27T12:01:21.699Z,940.45
2018-07-27T12:02:21.955Z,940.50
2018-07-27T12:03:21.728Z,940.49
2018-07-27T12:04:21.736Z,940.49
2018-07-27T12:05:21.837Z,940.46
2018-07-27T12:06:21.785Z,940.48
2018-07-27T12:07:21.801Z,940.52
2018-07-27T12:08:22.016Z,940.50
2018-07-27T12:09:21.850Z,940.50
2018-07-27T12:10:21.876Z,940.53
2018-07-27T12:11:21.874Z,940.53
2018-07-27T12:12:21.895Z,940.55
2018-07-27T12:13:22.059Z,940.53
2018-07-27T12:14:22.149Z,940.55
2018-07-27T12:15:21.995Z,940.54
2018-07-27T12:16:21.965Z,940.50
2018-07-27T12:17:21.977Z,940.51
2018-07-27T12:18:22.161Z,940.50
2018-07-27T12:19:22.040Z,940.52
2018-07-27T12:20:22.081Z,940.50
2018-07-27T12:21:22.163Z,940.42
2018-07-27T12:22:22.108Z,940.45
2018-07-27T12:23:22.338Z,940.46
2018-07-27T12:24:22.105Z,940.43
2018-07-27T12:25:22.154Z,940.47
2018-07-27T12:26:22.119Z,940.47
2018-07-27T12:27:22.231Z,940.46
2018-07-27T12:28:22.376Z,940.50